sensor_id;sensor_type;location;lat;lon;timestamp;pressure;altitude;pressure_sealevel;temperature;humidity
74627;BME280;63132;52.268;5.192;2023-04-06T00:00:49;101769.44;;;0.88;69.61
74627;BME280;63132;52.268;5.192;2023-04-06T00:03:15;101769.53;;;0.83;69.00
74627;BME280;63132;52.268;5.192;2023-04-06T00:05:40;101766.81;;;0.88;67.73
74627;BME280;63132;52.268;5.192;2023-04-06T00:08:06;101765.91;;;0.89;68.46
74627;BME280;63132;52.268;5.192;2023-04-06T00:10:31;101764.81;;;0.99;67.42
74627;BME280;63132;52.268;5.192;2023-04-06T00:12:58;101763.81;;;1.03;66.41
74627;BME280;63132;52.268;5.192;2023-04-06T00:15:24;101764.69;;;1.04;68.85
74627;BME280;63132;52.268;5.192;2023-04-06T00:17:49;101753.41;;;1.00;68.72
74627;BME280;63132;52.268;5.192;2023-04-06T00:20:15;101760.53;;;0.95;66.86
74627;BME280;63132;52.268;5.192;2023-04-06T00:22:41;101757.81;;;0.98;66.09
74627;BME280;63132;52.268;5.192;2023-04-06T00:25:07;101760.34;;;1.01;67.64
74627;BME280;63132;52.268;5.192;2023-04-06T00:27:32;101751.78;;;0.94;69.13
74627;BME280;63132;52.268;5.192;2023-04-06T00:29:58;101749.28;;;0.90;69.25
74627;BME280;63132;52.268;5.192;2023-04-06T00:32:23;101750.28;;;0.86;69.77
74627;BME280;63132;52.268;5.192;2023-04-06T00:34:49;101750.28;;;0.84;70.38
74627;BME280;63132;52.268;5.192;2023-04-06T00:37:14;101743.41;;;0.80;69.85
74627;BME280;63132;52.268;5.192;2023-04-06T00:39:39;101745.91;;;0.85;68.63
74627;BME280;63132;52.268;5.192;2023-04-06T00:42:12;101752.09;;;0.82;70.66
74627;BME280;63132;52.268;5.192;2023-04-06T00:44:39;101735.56;;;0.80;70.49
74627;BME280;63132;52.268;5.192;2023-04-06T00:47:05;101734.38;;;0.93;69.20
74627;BME280;63132;52.268;5.192;2023-04-06T00:49:32;101729.81;;;1.00;67.45
74627;BME280;63132;52.268;5.192;2023-04-06T00:51:57;101721.78;;;1.08;69.75
74627;BME280;63132;52.268;5.192;2023-04-06T00:54:23;101723.66;;;1.01;68.48
74627;BME280;63132;52.268;5.192;2023-04-06T00:56:48;101715.78;;;1.03;68.27
74627;BME280;63132;52.268;5.192;2023-04-06T00:59:14;101720.03;;;1.07;67.65
74627;BME280;63132;52.268;5.192;2023-04-06T01:01:39;101713.72;;;1.16;68.13
74627;BME280;63132;52.268;5.192;2023-04-06T01:04:05;101709.34;;;1.15;67.64
74627;BME280;63132;52.268;5.192;2023-04-06T01:06:30;101706.59;;;1.21;68.20
74627;BME280;63132;52.268;5.192;2023-04-06T01:08:56;101696.88;;;1.25;66.93
74627;BME280;63132;52.268;5.192;2023-04-06T01:11:21;101695.03;;;1.28;66.58
74627;BME280;63132;52.268;5.192;2023-04-06T01:13:47;101697.97;;;1.49;65.80
74627;BME280;63132;52.268;5.192;2023-04-06T01:16:12;101692.00;;;1.44;64.42
74627;BME280;63132;52.268;5.192;2023-04-06T01:18:38;101687.06;;;1.65;64.75
74627;BME280;63132;52.268;5.192;2023-04-06T01:21:04;101692.13;;;1.73;64.00
74627;BME280;63132;52.268;5.192;2023-04-06T01:23:29;101686.22;;;1.64;63.20
74627;BME280;63132;52.268;5.192;2023-04-06T01:25:55;101690.56;;;1.65;63.31
74627;BME280;63132;52.268;5.192;2023-04-06T01:28:20;101685.09;;;1.73;63.03
74627;BME280;63132;52.268;5.192;2023-04-06T01:30:46;101684.13;;;1.77;62.52
74627;BME280;63132;52.268;5.192;2023-04-06T01:33:11;101683.16;;;1.80;63.79
74627;BME280;63132;52.268;5.192;2023-04-06T01:35:36;101677.53;;;1.94;63.02
74627;BME280;63132;52.268;5.192;2023-04-06T01:38:02;101676.94;;;1.84;63.45
74627;BME280;63132;52.268;5.192;2023-04-06T01:40:27;101671.72;;;1.83;63.35
74627;BME280;63132;52.268;5.192;2023-04-06T01:42:53;101672.16;;;1.97;62.75
74627;BME280;63132;52.268;5.192;2023-04-06T01:45:18;101672.16;;;1.97;62.31
74627;BME280;63132;52.268;5.192;2023-04-06T01:47:43;101667.06;;;1.93;63.04
74627;BME280;63132;52.268;5.192;2023-04-06T01:50:09;101653.44;;;2.10;63.03
74627;BME280;63132;52.268;5.192;2023-04-06T01:52:34;101659.03;;;1.97;63.53
74627;BME280;63132;52.268;5.192;2023-04-06T01:55:00;101655.53;;;1.98;62.50
74627;BME280;63132;52.268;5.192;2023-04-06T01:57:25;101651.81;;;2.06;62.51
74627;BME280;63132;52.268;5.192;2023-04-06T01:59:51;101647.31;;;2.09;62.18
74627;BME280;63132;52.268;5.192;2023-04-06T02:02:17;101643.72;;;2.13;62.39
74627;BME280;63132;52.268;5.192;2023-04-06T02:04:42;101640.25;;;2.11;62.26
74627;BME280;63132;52.268;5.192;2023-04-06T02:07:08;101640.06;;;2.18;61.96
74627;BME280;63132;52.268;5.192;2023-04-06T02:09:33;101643.78;;;2.10;62.71
74627;BME280;63132;52.268;5.192;2023-04-06T02:11:59;101635.00;;;2.11;62.98
74627;BME280;63132;52.268;5.192;2023-04-06T02:14:25;101638.13;;;2.24;62.77
74627;BME280;63132;52.268;5.192;2023-04-06T02:16:51;101630.47;;;2.17;62.42
74627;BME280;63132;52.268;5.192;2023-04-06T02:19:16;101633.09;;;2.17;63.53
74627;BME280;63132;52.268;5.192;2023-04-06T02:21:42;101630.59;;;2.12;61.44
74627;BME280;63132;52.268;5.192;2023-04-06T02:24:07;101625.34;;;2.12;61.82
74627;BME280;63132;52.268;5.192;2023-04-06T02:26:33;101622.66;;;2.15;64.02
74627;BME280;63132;52.268;5.192;2023-04-06T02:28:58;101615.78;;;2.11;62.89
74627;BME280;63132;52.268;5.192;2023-04-06T02:31:23;101613.84;;;2.16;62.27
74627;BME280;63132;52.268;5.192;2023-04-06T02:33:49;101616.47;;;2.16;62.81
74627;BME280;63132;52.268;5.192;2023-04-06T02:36:14;101619.84;;;2.21;60.86
74627;BME280;63132;52.268;5.192;2023-04-06T02:38:40;101616.28;;;2.22;60.67
74627;BME280;63132;52.268;5.192;2023-04-06T02:41:05;101610.44;;;2.41;61.08
74627;BME280;63132;52.268;5.192;2023-04-06T02:43:32;101609.03;;;2.31;59.59
74627;BME280;63132;52.268;5.192;2023-04-06T02:45:57;101598.53;;;2.31;59.35
74627;BME280;63132;52.268;5.192;2023-04-06T02:48:23;101603.56;;;2.37;59.25
74627;BME280;63132;52.268;5.192;2023-04-06T02:50:48;101593.06;;;2.37;58.54
74627;BME280;63132;52.268;5.192;2023-04-06T02:53:14;101596.44;;;2.41;59.01
74627;BME280;63132;52.268;5.192;2023-04-06T02:55:40;101586.97;;;2.36;59.65
74627;BME280;63132;52.268;5.192;2023-04-06T02:58:05;101587.88;;;2.35;60.34
74627;BME280;63132;52.268;5.192;2023-04-06T03:00:30;101584.88;;;2.46;58.85
74627;BME280;63132;52.268;5.192;2023-04-06T03:02:56;101583.94;;;2.49;59.04
74627;BME280;63132;52.268;5.192;2023-04-06T03:05:21;101581.56;;;2.68;58.75
74627;BME280;63132;52.268;5.192;2023-04-06T03:07:47;101582.06;;;2.53;59.78
74627;BME280;63132;52.268;5.192;2023-04-06T03:10:12;101581.25;;;2.51;58.73
74627;BME280;63132;52.268;5.192;2023-04-06T03:12:37;101576.81;;;2.53;59.04
74627;BME280;63132;52.268;5.192;2023-04-06T03:15:03;101586.56;;;2.49;58.59
74627;BME280;63132;52.268;5.192;2023-04-06T03:17:29;101579.59;;;2.48;60.25
74627;BME280;63132;52.268;5.192;2023-04-06T03:19:54;101578.78;;;2.46;58.81
74627;BME280;63132;52.268;5.192;2023-04-06T03:22:19;101571.81;;;2.45;61.39
74627;BME280;63132;52.268;5.192;2023-04-06T03:24:45;101571.16;;;2.38;60.73
74627;BME280;63132;52.268;5.192;2023-04-06T03:27:11;101562.59;;;2.33;60.70
74627;BME280;63132;52.268;5.192;2023-04-06T03:29:36;101568.72;;;2.32;62.39
74627;BME280;63132;52.268;5.192;2023-04-06T03:32:02;101568.84;;;2.29;63.14
74627;BME280;63132;52.268;5.192;2023-04-06T03:34:27;101567.22;;;2.24;62.36
74627;BME280;63132;52.268;5.192;2023-04-06T03:36:53;101562.78;;;2.27;62.59
74627;BME280;63132;52.268;5.192;2023-04-06T03:39:18;101554.22;;;2.20;60.97
74627;BME280;63132;52.268;5.192;2023-04-06T03:41:44;101548.09;;;2.21;61.88
74627;BME280;63132;52.268;5.192;2023-04-06T03:44:09;101551.59;;;2.20;62.64
74627;BME280;63132;52.268;5.192;2023-04-06T03:46:35;101546.22;;;2.24;61.97
74627;BME280;63132;52.268;5.192;2023-04-06T03:49:00;101547.16;;;2.22;63.56
74627;BME280;63132;52.268;5.192;2023-04-06T03:51:26;101547.16;;;2.22;62.93
74627;BME280;63132;52.268;5.192;2023-04-06T03:53:52;101545.59;;;2.43;61.53
74627;BME280;63132;52.268;5.192;2023-04-06T03:56:17;101548.09;;;2.21;62.90
74627;BME280;63132;52.268;5.192;2023-04-06T03:58:42;101540.66;;;2.34;62.74
74627;BME280;63132;52.268;5.192;2023-04-06T04:01:10;101542.34;;;2.35;62.74
74627;BME280;63132;52.268;5.192;2023-04-06T04:03:35;101549.03;;;2.18;63.14
74627;BME280;63132;52.268;5.192;2023-04-06T04:06:01;101538.72;;;2.12;64.06
74627;BME280;63132;52.268;5.192;2023-04-06T04:08:26;101543.19;;;2.10;63.37
74627;BME280;63132;52.268;5.192;2023-04-06T04:10:51;101544.06;;;2.09;63.19
74627;BME280;63132;52.268;5.192;2023-04-06T04:13:17;101545.19;;;2.01;64.00
74627;BME280;63132;52.268;5.192;2023-04-06T04:15:42;101547.56;;;2.09;63.91
74627;BME280;63132;52.268;5.192;2023-04-06T04:18:08;101551.38;;;1.99;64.34
74627;BME280;63132;52.268;5.192;2023-04-06T04:20:33;101540.69;;;2.05;64.18
74627;BME280;63132;52.268;5.192;2023-04-06T04:22:59;101538.00;;;2.07;63.61
74627;BME280;63132;52.268;5.192;2023-04-06T04:25:25;101543.94;;;2.13;64.77
74627;BME280;63132;52.268;5.192;2023-04-06T04:27:50;101535.50;;;2.04;64.63
74627;BME280;63132;52.268;5.192;2023-04-06T04:30:16;101544.69;;;2.17;64.57
74627;BME280;63132;52.268;5.192;2023-04-06T04:32:41;101538.88;;;2.07;64.15
74627;BME280;63132;52.268;5.192;2023-04-06T04:35:07;101541.56;;;2.06;64.52
74627;BME280;63132;52.268;5.192;2023-04-06T04:37:32;101533.75;;;2.03;64.06
74627;BME280;63132;52.268;5.192;2023-04-06T04:39:59;101531.13;;;2.03;64.25
74627;BME280;63132;52.268;5.192;2023-04-06T04:42:25;101528.94;;;2.17;63.10
74627;BME280;63132;52.268;5.192;2023-04-06T04:44:51;101531.09;;;2.31;62.59
74627;BME280;63132;52.268;5.192;2023-04-06T04:47:16;101530.97;;;2.36;62.35
74627;BME280;63132;52.268;5.192;2023-04-06T04:49:41;101529.44;;;2.56;62.18
74627;BME280;63132;52.268;5.192;2023-04-06T04:52:07;101524.81;;;2.63;61.60
74627;BME280;63132;52.268;5.192;2023-04-06T04:54:32;101528.41;;;2.60;61.56
74627;BME280;63132;52.268;5.192;2023-04-06T04:56:57;101522.81;;;2.69;60.23
74627;BME280;63132;52.268;5.192;2023-04-06T04:59:24;101525.13;;;2.79;60.51
74627;BME280;63132;52.268;5.192;2023-04-06T05:01:49;101525.56;;;2.92;59.62
74627;BME280;63132;52.268;5.192;2023-04-06T05:04:14;101518.91;;;3.07;59.07
74627;BME280;63132;52.268;5.192;2023-04-06T05:06:40;101521.41;;;3.10;58.85
74627;BME280;63132;52.268;5.192;2023-04-06T05:09:05;101525.50;;;3.17;59.62
74627;BME280;63132;52.268;5.192;2023-04-06T05:11:31;101513.28;;;3.16;59.47
74627;BME280;63132;52.268;5.192;2023-04-06T05:13:56;101505.56;;;3.36;58.41
74627;BME280;63132;52.268;5.192;2023-04-06T05:16:21;101511.91;;;3.30;59.09
74627;BME280;63132;52.268;5.192;2023-04-06T05:18:47;101512.53;;;3.61;58.69
74627;BME280;63132;52.268;5.192;2023-04-06T05:21:13;101510.34;;;3.48;58.41
74627;BME280;63132;52.268;5.192;2023-04-06T05:23:39;101508.00;;;3.40;59.56
74627;BME280;63132;52.268;5.192;2023-04-06T05:26:05;101507.72;;;3.48;58.48
74627;BME280;63132;52.268;5.192;2023-04-06T05:28:30;101510.19;;;3.53;58.64
74627;BME280;63132;52.268;5.192;2023-04-06T05:30:56;101506.31;;;3.39;58.31
74627;BME280;63132;52.268;5.192;2023-04-06T05:33:22;101509.56;;;3.46;58.88
74627;BME280;63132;52.268;5.192;2023-04-06T05:35:48;101501.50;;;3.51;59.22
74627;BME280;63132;52.268;5.192;2023-04-06T05:38:13;101504.47;;;3.41;59.10
74627;BME280;63132;52.268;5.192;2023-04-06T05:40:39;101502.84;;;3.61;58.61
74627;BME280;63132;52.268;5.192;2023-04-06T05:43:06;101504.00;;;3.54;58.46
74627;BME280;63132;52.268;5.192;2023-04-06T05:45:32;101509.13;;;3.57;57.78
74627;BME280;63132;52.268;5.192;2023-04-06T05:47:57;101502.28;;;3.53;58.82
74627;BME280;63132;52.268;5.192;2023-04-06T05:50:23;101501.13;;;3.60;58.36
74627;BME280;63132;52.268;5.192;2023-04-06T05:52:48;101513.88;;;3.71;57.63
74627;BME280;63132;52.268;5.192;2023-04-06T05:55:13;101505.81;;;3.76;58.17
74627;BME280;63132;52.268;5.192;2023-04-06T05:57:39;101502.03;;;4.04;56.73
74627;BME280;63132;52.268;5.192;2023-04-06T06:00:06;101513.38;;;3.84;57.89
74627;BME280;63132;52.268;5.192;2023-04-06T06:02:34;101508.72;;;3.90;57.46
74627;BME280;63132;52.268;5.192;2023-04-06T06:04:59;101512.88;;;3.96;57.22
74627;BME280;63132;52.268;5.192;2023-04-06T06:07:25;101518.00;;;3.99;57.18
74627;BME280;63132;52.268;5.192;2023-04-06T06:09:50;101503.94;;;4.00;57.10
74627;BME280;63132;52.268;5.192;2023-04-06T06:12:16;101511.16;;;4.18;57.86
74627;BME280;63132;52.268;5.192;2023-04-06T06:14:41;101504.84;;;4.22;57.14
74627;BME280;63132;52.268;5.192;2023-04-06T06:17:06;101507.59;;;4.40;57.22
74627;BME280;63132;52.268;5.192;2023-04-06T06:19:32;101503.66;;;4.50;56.07
74627;BME280;63132;52.268;5.192;2023-04-06T06:21:57;101505.09;;;4.78;56.49
74627;BME280;63132;52.268;5.192;2023-04-06T06:24:23;101500.47;;;4.83;55.39
74627;BME280;63132;52.268;5.192;2023-04-06T06:26:49;101506.41;;;4.89;54.39
74627;BME280;63132;52.268;5.192;2023-04-06T06:29:14;101501.16;;;5.27;54.78
74627;BME280;63132;52.268;5.192;2023-04-06T06:31:40;101500.97;;;5.32;54.64
74627;BME280;63132;52.268;5.192;2023-04-06T06:34:05;101494.91;;;5.49;53.86
74627;BME280;63132;52.268;5.192;2023-04-06T06:36:31;101499.56;;;5.62;53.79
74627;BME280;63132;52.268;5.192;2023-04-06T06:38:57;101500.34;;;5.83;53.25
74627;BME280;63132;52.268;5.192;2023-04-06T06:41:23;101493.13;;;5.87;53.58
74627;BME280;63132;52.268;5.192;2023-04-06T06:43:49;101502.47;;;5.75;53.54
74627;BME280;63132;52.268;5.192;2023-04-06T06:46:14;101500.75;;;5.93;53.10
74627;BME280;63132;52.268;5.192;2023-04-06T06:48:40;101501.50;;;6.14;52.51
74627;BME280;63132;52.268;5.192;2023-04-06T06:51:05;101497.53;;;6.23;52.21
74627;BME280;63132;52.268;5.192;2023-04-06T06:53:30;101495.19;;;6.17;52.73
74627;BME280;63132;52.268;5.192;2023-04-06T06:55:56;101497.38;;;6.09;52.68
74627;BME280;63132;52.268;5.192;2023-04-06T06:58:21;101491.41;;;6.03;52.52
74627;BME280;63132;52.268;5.192;2023-04-06T07:00:47;101493.97;;;5.87;53.09
74627;BME280;63132;52.268;5.192;2023-04-06T07:03:12;101497.16;;;5.76;53.25
74627;BME280;63132;52.268;5.192;2023-04-06T07:05:38;101489.41;;;5.91;53.56
74627;BME280;63132;52.268;5.192;2023-04-06T07:08:03;101488.91;;;5.83;53.97
74627;BME280;63132;52.268;5.192;2023-04-06T07:10:29;101483.41;;;5.87;53.78
74627;BME280;63132;52.268;5.192;2023-04-06T07:12:55;101481.31;;;5.94;53.84
74627;BME280;63132;52.268;5.192;2023-04-06T07:15:20;101473.31;;;5.78;55.21
74627;BME280;63132;52.268;5.192;2023-04-06T07:17:46;101485.69;;;5.95;54.02
74627;BME280;63132;52.268;5.192;2023-04-06T07:20:12;101485.72;;;6.13;53.70
74627;BME280;63132;52.268;5.192;2023-04-06T07:22:38;101487.91;;;6.22;54.14
74627;BME280;63132;52.268;5.192;2023-04-06T07:25:04;101483.09;;;6.48;53.30
74627;BME280;63132;52.268;5.192;2023-04-06T07:27:30;101473.47;;;6.30;53.89
74627;BME280;63132;52.268;5.192;2023-04-06T07:29:55;101482.00;;;6.35;54.15
74627;BME280;63132;52.268;5.192;2023-04-06T07:32:20;101478.56;;;6.50;54.13
74627;BME280;63132;52.268;5.192;2023-04-06T07:34:46;101471.56;;;6.49;53.45
74627;BME280;63132;52.268;5.192;2023-04-06T07:37:12;101473.88;;;6.56;54.48
74627;BME280;63132;52.268;5.192;2023-04-06T07:39:37;101473.88;;;6.73;53.34
74627;BME280;63132;52.268;5.192;2023-04-06T07:42:02;101476.03;;;6.99;53.16
74627;BME280;63132;52.268;5.192;2023-04-06T07:44:28;101473.75;;;7.09;53.19
74627;BME280;63132;52.268;5.192;2023-04-06T07:46:53;101469.00;;;7.16;52.92
74627;BME280;63132;52.268;5.192;2023-04-06T07:49:19;101464.47;;;7.34;52.99
74627;BME280;63132;52.268;5.192;2023-04-06T07:51:46;101468.16;;;7.48;52.92
74627;BME280;63132;52.268;5.192;2023-04-06T07:54:11;101466.50;;;7.45;51.89
74627;BME280;63132;52.268;5.192;2023-04-06T07:56:36;101470.94;;;7.77;51.67
74627;BME280;63132;52.268;5.192;2023-04-06T07:59:02;101465.47;;;7.80;51.25
74627;BME280;63132;52.268;5.192;2023-04-06T08:01:28;101475.81;;;7.68;52.43
74627;BME280;63132;52.268;5.192;2023-04-06T08:03:54;101469.81;;;7.81;51.16
74627;BME280;63132;52.268;5.192;2023-04-06T08:06:20;101467.03;;;7.99;52.02
74627;BME280;63132;52.268;5.192;2023-04-06T08:08:46;101473.44;;;8.11;51.31
74627;BME280;63132;52.268;5.192;2023-04-06T08:11:11;101473.69;;;8.06;52.39
74627;BME280;63132;52.268;5.192;2023-04-06T08:13:36;101467.63;;;8.04;51.42
74627;BME280;63132;52.268;5.192;2023-04-06T08:16:02;101466.00;;;8.32;50.75
74627;BME280;63132;52.268;5.192;2023-04-06T08:18:27;101466.56;;;8.68;50.54
74627;BME280;63132;52.268;5.192;2023-04-06T08:20:55;101466.09;;;8.76;50.18
74627;BME280;63132;52.268;5.192;2023-04-06T08:23:20;101466.75;;;8.80;49.81
74627;BME280;63132;52.268;5.192;2023-04-06T08:25:46;101466.53;;;8.97;50.90
74627;BME280;63132;52.268;5.192;2023-04-06T08:28:11;101461.84;;;9.30;48.53
74627;BME280;63132;52.268;5.192;2023-04-06T08:30:42;101454.91;;;8.85;49.44
74627;BME280;63132;52.268;5.192;2023-04-06T08:33:08;101466.63;;;9.10;49.46
74627;BME280;63132;52.268;5.192;2023-04-06T08:35:34;101460.91;;;9.31;48.95
74627;BME280;63132;52.268;5.192;2023-04-06T08:38:00;101461.19;;;9.27;49.70
74627;BME280;63132;52.268;5.192;2023-04-06T08:40:26;101458.91;;;9.35;49.38
74627;BME280;63132;52.268;5.192;2023-04-06T08:42:54;101447.72;;;9.57;49.43
74627;BME280;63132;52.268;5.192;2023-04-06T08:45:20;101450.41;;;9.98;48.22
74627;BME280;63132;52.268;5.192;2023-04-06T08:47:57;101450.22;;;10.14;48.29
74627;BME280;63132;52.268;5.192;2023-04-06T08:50:24;101447.25;;;10.45;47.08
74627;BME280;63132;52.268;5.192;2023-04-06T08:52:50;101445.81;;;10.67;46.61
74627;BME280;63132;52.268;5.192;2023-04-06T08:55:15;101445.47;;;10.46;47.84
74627;BME280;63132;52.268;5.192;2023-04-06T08:57:41;101449.09;;;11.21;47.18
74627;BME280;63132;52.268;5.192;2023-04-06T09:00:10;101448.47;;;10.80;47.29
74627;BME280;63132;52.268;5.192;2023-04-06T09:02:39;101450.59;;;10.62;47.94
74627;BME280;63132;52.268;5.192;2023-04-06T09:05:07;101444.00;;;11.18;47.59
74627;BME280;63132;52.268;5.192;2023-04-06T09:07:33;101444.41;;;11.25;47.77
74627;BME280;63132;52.268;5.192;2023-04-06T09:09:58;101452.78;;;11.07;46.91
74627;BME280;63132;52.268;5.192;2023-04-06T09:12:24;101452.81;;;10.81;48.44
74627;BME280;63132;52.268;5.192;2023-04-06T09:14:50;101451.44;;;11.26;46.79
74627;BME280;63132;52.268;5.192;2023-04-06T09:17:27;101456.00;;;10.99;48.56
74627;BME280;63132;52.268;5.192;2023-04-06T09:19:53;101471.03;;;10.74;49.38
74627;BME280;63132;52.268;5.192;2023-04-06T09:22:19;101465.09;;;10.58;49.85
74627;BME280;63132;52.268;5.192;2023-04-06T09:27:10;101463.88;;;10.75;49.96
74627;BME280;63132;52.268;5.192;2023-04-06T09:29:36;101463.03;;;10.48;51.66
74627;BME280;63132;52.268;5.192;2023-04-06T09:32:04;101463.63;;;10.39;51.68
74627;BME280;63132;52.268;5.192;2023-04-06T09:34:31;101473.00;;;10.32;51.73
74627;BME280;63132;52.268;5.192;2023-04-06T09:36:56;101467.16;;;10.39;52.28
74627;BME280;63132;52.268;5.192;2023-04-06T09:39:22;101468.66;;;10.30;53.44
74627;BME280;63132;52.268;5.192;2023-04-06T09:41:51;101475.19;;;10.52;53.41
74627;BME280;63132;52.268;5.192;2023-04-06T09:44:17;101470.94;;;10.63;54.48
74627;BME280;63132;52.268;5.192;2023-04-06T09:46:44;101476.78;;;10.55;54.67
74627;BME280;63132;52.268;5.192;2023-04-06T09:49:11;101473.84;;;10.19;57.80
74627;BME280;63132;52.268;5.192;2023-04-06T09:51:38;101473.50;;;10.51;57.21
74627;BME280;63132;52.268;5.192;2023-04-06T09:54:05;101474.63;;;9.93;59.11
74627;BME280;63132;52.268;5.192;2023-04-06T09:56:37;101467.81;;;9.89;60.24
74627;BME280;63132;52.268;5.192;2023-04-06T09:59:08;101474.19;;;9.87;60.94
74627;BME280;63132;52.268;5.192;2023-04-06T10:01:36;101479.31;;;9.62;61.61
74627;BME280;63132;52.268;5.192;2023-04-06T10:06:39;101469.22;;;9.95;62.45
74627;BME280;63132;52.268;5.192;2023-04-06T10:09:06;101468.06;;;9.99;59.63
74627;BME280;63132;52.268;5.192;2023-04-06T10:11:34;101468.66;;;10.30;59.26
74627;BME280;63132;52.268;5.192;2023-04-06T10:14:00;101474.16;;;10.27;59.39
74627;BME280;63132;52.268;5.192;2023-04-06T10:16:26;101476.19;;;10.37;58.96
74627;BME280;63132;52.268;5.192;2023-04-06T10:19:02;101475.38;;;10.36;58.48
74627;BME280;63132;52.268;5.192;2023-04-06T10:21:31;101465.78;;;10.47;58.51
74627;BME280;63132;52.268;5.192;2023-04-06T10:23:59;101468.91;;;10.80;59.27
74627;BME280;63132;52.268;5.192;2023-04-06T10:26:25;101470.28;;;10.46;58.11
74627;BME280;63132;52.268;5.192;2023-04-06T10:28:50;101470.94;;;10.63;60.16
74627;BME280;63132;52.268;5.192;2023-04-06T10:31:24;101470.47;;;10.43;59.65
74627;BME280;63132;52.268;5.192;2023-04-06T10:33:55;101473.53;;;10.37;61.18
74627;BME280;63132;52.268;5.192;2023-04-06T10:36:23;101459.19;;;10.26;60.99
74627;BME280;63132;52.268;5.192;2023-04-06T10:38:54;101461.72;;;9.74;63.80
74627;BME280;63132;52.268;5.192;2023-04-06T10:41:20;101454.88;;;9.70;65.17
74627;BME280;63132;52.268;5.192;2023-04-06T10:43:54;101455.44;;;9.47;64.60
74627;BME280;63132;52.268;5.192;2023-04-06T10:46:28;101458.72;;;9.66;64.96
74627;BME280;63132;52.268;5.192;2023-04-06T10:48:55;101456.44;;;9.32;66.26
74627;BME280;63132;52.268;5.192;2023-04-06T10:51:25;101454.19;;;9.53;67.36
74627;BME280;63132;52.268;5.192;2023-04-06T10:53:53;101447.69;;;9.44;65.53
74627;BME280;63132;52.268;5.192;2023-04-06T10:56:22;101445.31;;;9.40;66.54
74627;BME280;63132;52.268;5.192;2023-04-06T10:58:52;101441.63;;;8.85;69.13
74627;BME280;63132;52.268;5.192;2023-04-06T11:01:19;101442.56;;;8.70;69.22
74627;BME280;63132;52.268;5.192;2023-04-06T11:03:46;101440.25;;;8.49;71.50
74627;BME280;63132;52.268;5.192;2023-04-06T11:06:23;101430.00;;;8.59;71.18
74627;BME280;63132;52.268;5.192;2023-04-06T11:08:50;101435.94;;;8.62;71.35
74627;BME280;63132;52.268;5.192;2023-04-06T11:11:18;101429.50;;;8.81;72.35
74627;BME280;63132;52.268;5.192;2023-04-06T11:13:56;101433.50;;;8.74;71.31
74627;BME280;63132;52.268;5.192;2023-04-06T11:21:31;101420.59;;;8.97;71.95
74627;BME280;63132;52.268;5.192;2023-04-06T11:24:24;101419.91;;;8.79;73.21
74627;BME280;63132;52.268;5.192;2023-04-06T11:26:57;101423.63;;;8.91;71.95
74627;BME280;63132;52.268;5.192;2023-04-06T11:29:28;101419.44;;;9.01;73.76
74627;BME280;63132;52.268;5.192;2023-04-06T11:31:58;101417.53;;;9.03;73.67
74627;BME280;63132;52.268;5.192;2023-04-06T11:34:25;101418.13;;;8.79;73.49
74627;BME280;63132;52.268;5.192;2023-04-06T11:37:01;101409.44;;;9.19;73.02
74627;BME280;63132;52.268;5.192;2023-04-06T11:39:28;101412.59;;;9.11;73.65
74627;BME280;63132;52.268;5.192;2023-04-06T11:41:59;101412.22;;;9.03;73.59
74627;BME280;63132;52.268;5.192;2023-04-06T11:44:32;101407.31;;;8.97;72.51
74627;BME280;63132;52.268;5.192;2023-04-06T11:46:58;101403.91;;;8.95;74.17
74627;BME280;63132;52.268;5.192;2023-04-06T11:49:28;101403.31;;;9.04;74.45
74627;BME280;63132;52.268;5.192;2023-04-06T11:51:54;101401.69;;;9.02;74.66
74627;BME280;63132;52.268;5.192;2023-04-06T11:54:36;101394.81;;;8.99;74.56
74627;BME280;63132;52.268;5.192;2023-04-06T11:57:03;101394.22;;;9.08;73.80
74627;BME280;63132;52.268;5.192;2023-04-06T11:59:29;101399.09;;;9.15;74.10
74627;BME280;63132;52.268;5.192;2023-04-06T12:01:57;101391.50;;;8.95;73.71
74627;BME280;63132;52.268;5.192;2023-04-06T12:04:22;101392.25;;;8.83;75.28
74627;BME280;63132;52.268;5.192;2023-04-06T12:06:48;101389.72;;;9.23;74.81
74627;BME280;63132;52.268;5.192;2023-04-06T12:09:13;101380.13;;;8.93;74.53
74627;BME280;63132;52.268;5.192;2023-04-06T12:11:38;101378.22;;;9.23;74.21
74627;BME280;63132;52.268;5.192;2023-04-06T12:14:04;101385.53;;;9.19;75.07
74627;BME280;63132;52.268;5.192;2023-04-06T12:16:30;101381.94;;;9.20;74.40
74627;BME280;63132;52.268;5.192;2023-04-06T12:18:56;101383.28;;;9.41;73.19
74627;BME280;63132;52.268;5.192;2023-04-06T12:21:22;101388.16;;;9.34;75.00
74627;BME280;63132;52.268;5.192;2023-04-06T12:23:47;101378.88;;;9.27;74.40
74627;BME280;63132;52.268;5.192;2023-04-06T12:26:13;101388.09;;;9.21;74.42
74627;BME280;63132;52.268;5.192;2023-04-06T12:28:38;101381.59;;;8.97;76.44
74627;BME280;63132;52.268;5.192;2023-04-06T12:31:03;101382.53;;;9.11;75.27
74627;BME280;63132;52.268;5.192;2023-04-06T12:33:29;101377.22;;;9.11;77.28
74627;BME280;63132;52.268;5.192;2023-04-06T12:35:54;101374.53;;;9.26;76.26
74627;BME280;63132;52.268;5.192;2023-04-06T12:38:20;101378.56;;;9.18;75.22
74627;BME280;63132;52.268;5.192;2023-04-06T12:40:46;101378.22;;;8.81;76.83
74627;BME280;63132;52.268;5.192;2023-04-06T12:43:11;101372.44;;;8.88;77.83
74627;BME280;63132;52.268;5.192;2023-04-06T12:45:39;101369.34;;;8.67;77.44
74627;BME280;63132;52.268;5.192;2023-04-06T12:48:05;101378.13;;;8.82;76.65
74627;BME280;63132;52.268;5.192;2023-04-06T12:50:30;101366.19;;;8.75;77.76
74627;BME280;63132;52.268;5.192;2023-04-06T12:52:55;101367.53;;;8.53;78.36
74627;BME280;63132;52.268;5.192;2023-04-06T12:55:21;101362.91;;;8.57;78.47
74627;BME280;63132;52.268;5.192;2023-04-06T12:57:46;101371.88;;;8.39;79.23
74627;BME280;63132;52.268;5.192;2023-04-06T13:00:12;101363.06;;;8.39;78.79
74627;BME280;63132;52.268;5.192;2023-04-06T13:02:39;101355.22;;;8.52;78.60
74627;BME280;63132;52.268;5.192;2023-04-06T13:05:05;101355.69;;;8.44;79.26